createdAt,value
2018-09-05T04:00:28.821Z,49.20
2018-09-05T04:02:57.898Z,49.20
2018-09-05T04:06:00.818Z,49.20
2018-09-05T04:08:28.926Z,49.30
2018-09-05T04:10:57.278Z,49.30
2018-09-05T04:13:25.722Z,49.30
2018-09-05T04:15:53.847Z,49.30
2018-09-05T04:18:21.974Z,49.30
2018-09-05T04:20:50.089Z,49.30
2018-09-05T04:23:18.363Z,49.30
2018-09-05T04:25:46.824Z,49.20
2018-09-05T04:28:15.340Z,49.30
2018-09-05T04:30:43.507Z,49.30
2018-09-05T04:33:11.602Z,49.30
2018-09-05T04:35:39.717Z,49.30
2018-09-05T04:38:07.836Z,49.80
2018-09-05T04:40:36.343Z,49.30
2018-09-05T04:43:04.548Z,49.30
2018-09-05T04:45:33.687Z,49.30
2018-09-05T04:48:02.135Z,49.30
2018-09-05T04:50:30.262Z,49.30
2018-09-05T04:52:58.460Z,49.30
2018-09-05T04:55:26.567Z,49.30
2018-09-05T04:57:54.696Z,49.30
2018-09-05T05:00:22.818Z,49.30
2018-09-05T05:02:51.973Z,49.30
2018-09-05T05:05:20.099Z,49.30
2018-09-05T05:07:48.452Z,49.30
2018-09-05T05:10:16.877Z,49.30
2018-09-05T05:12:45.018Z,49.30
2018-09-05T05:15:13.193Z,49.30
2018-09-05T05:17:41.311Z,49.70
2018-09-05T05:20:09.408Z,49.20
2018-09-05T05:22:37.480Z,49.20
2018-09-05T05:25:06.285Z,49.30
2018-09-05T05:27:34.412Z,49.30
2018-09-05T05:30:03.225Z,49.20
2018-09-05T05:32:31.454Z,49.20
2018-09-05T05:34:59.726Z,49.20
2018-09-05T05:37:27.822Z,49.20
2018-09-05T05:39:55.927Z,49.20
2018-09-05T05:42:24.774Z,49.20
2018-09-05T05:44:53.259Z,49.10
2018-09-05T05:47:21.448Z,49.20
2018-09-05T05:49:49.532Z,49.10
2018-09-05T05:52:17.604Z,49.10
2018-09-05T05:54:46.388Z,49.10
2018-09-05T05:57:14.567Z,49.10
2018-09-05T05:59:43.234Z,49.10
2018-09-05T06:02:12.362Z,49.00
2018-09-05T06:04:40.476Z,49.00
2018-09-05T06:07:08.967Z,49.00
2018-09-05T06:09:38.297Z,48.90
2018-09-05T06:12:07.822Z,48.90
2018-09-05T06:14:36.122Z,48.80
2018-09-05T06:17:04.307Z,49.00
2018-09-05T06:19:33.347Z,49.40
2018-09-05T06:22:01.456Z,49.80
2018-09-05T06:24:29.744Z,50.00
2018-09-05T06:26:57.891Z,50.30
2018-09-05T06:29:26.893Z,50.70
2018-09-05T06:31:55.046Z,50.70
2018-09-05T06:34:23.209Z,50.80
2018-09-05T06:36:51.516Z,50.80
2018-09-05T06:39:20.169Z,50.80
2018-09-05T06:41:48.320Z,50.90
2018-09-05T06:44:16.455Z,50.90
2018-09-05T06:46:44.991Z,50.80
2018-09-05T06:49:13.508Z,50.80
2018-09-05T06:51:42.452Z,50.70
2018-09-05T06:54:11.033Z,50.70
2018-09-05T07:01:25.680Z,50.60
2018-09-05T07:03:54.334Z,50.40
2018-09-05T07:06:22.731Z,50.30
2018-09-05T07:08:50.867Z,50.50
2018-09-05T07:11:19.406Z,50.30
2018-09-05T07:13:47.754Z,50.30
2018-09-05T07:16:16.532Z,50.50
2018-09-05T07:18:45.188Z,50.30
2018-09-05T07:21:14.581Z,50.20
2018-09-05T07:23:43.099Z,50.30
2018-09-05T07:26:11.558Z,50.30
2018-09-05T07:28:40.180Z,50.40
2018-09-05T07:31:08.662Z,50.10
2018-09-05T07:33:36.987Z,50.00
2018-09-05T07:36:05.228Z,49.90
2018-09-05T07:38:33.657Z,49.80
2018-09-05T07:41:01.805Z,49.90
2018-09-05T07:43:30.360Z,49.80
2018-09-05T07:45:58.472Z,49.90
2018-09-05T07:48:26.670Z,49.80
2018-09-05T07:50:54.805Z,49.70
2018-09-05T07:53:22.908Z,49.70
2018-09-05T07:55:51.055Z,49.50
2018-09-05T07:58:19.195Z,49.60
2018-09-05T08:00:47.761Z,49.50
2018-09-05T08:03:16.272Z,49.40
2018-09-05T08:05:44.501Z,49.30
2018-09-05T08:08:12.929Z,49.20
2018-09-05T08:10:41.183Z,49.20
2018-09-05T08:13:09.287Z,49.10
2018-09-05T08:15:37.532Z,49.10
2018-09-05T08:18:06.377Z,48.90
2018-09-05T08:20:34.500Z,48.90
2018-09-05T08:23:02.637Z,48.80
2018-09-05T08:25:30.722Z,48.60
2018-09-05T08:27:59.575Z,48.40
2018-09-05T08:30:27.945Z,48.40
2018-09-05T08:32:56.137Z,48.10
2018-09-05T08:35:25.004Z,48.10
2018-09-05T08:37:53.192Z,47.70
2018-09-05T08:40:21.434Z,47.40
2018-09-05T08:42:49.625Z,47.40
2018-09-05T08:45:18.345Z,47.40
2018-09-05T08:47:46.272Z,47.20
2018-09-05T08:50:14.902Z,46.90
2018-09-05T08:52:43.069Z,47.00
2018-09-05T08:55:11.262Z,47.10
2018-09-05T08:57:39.308Z,46.70
2018-09-05T09:00:07.943Z,46.10
2018-09-05T09:02:36.387Z,46.20
2018-09-05T09:05:05.078Z,46.40
2018-09-05T09:07:33.095Z,46.40
2018-09-05T09:10:01.264Z,46.50
2018-09-05T09:12:30.306Z,46.50
2018-09-05T09:14:58.395Z,46.40
2018-09-05T09:17:26.531Z,46.20
2018-09-05T09:19:54.672Z,46.40
2018-09-05T09:22:23.076Z,45.90
2018-09-05T09:24:51.236Z,46.10
2018-09-05T09:27:19.940Z,45.90
2018-09-05T09:29:48.832Z,45.80
2018-09-05T09:32:17.179Z,45.80
2018-09-05T09:34:45.730Z,45.80
2018-09-05T09:37:13.898Z,45.70
2018-09-05T09:39:42.045Z,45.60
2018-09-05T09:42:10.247Z,45.60
2018-09-05T09:44:38.826Z,45.50
2018-09-05T09:47:07.146Z,45.20
2018-09-05T09:49:35.563Z,45.30
2018-09-05T09:52:09.211Z,45.10
2018-09-05T09:54:38.275Z,44.80
2018-09-05T09:57:07.907Z,44.90
2018-09-05T09:59:35.353Z,45.00
2018-09-05T10:02:08.587Z,45.00
2018-09-05T10:04:41.380Z,44.70
2018-09-05T10:07:14.382Z,45.20
2018-09-05T10:09:47.421Z,44.80
2018-09-05T10:12:20.298Z,45.00
2018-09-05T10:14:54.112Z,45.20
2018-09-05T10:17:26.961Z,45.30
2018-09-05T10:19:56.117Z,45.30
2018-09-05T10:22:23.641Z,45.00
2018-09-05T10:24:51.310Z,44.60
2018-09-05T10:27:18.763Z,44.50
2018-09-05T10:29:46.645Z,44.50
2018-09-05T10:32:14.337Z,44.40
2018-09-05T10:34:42.618Z,44.20
2018-09-05T10:37:10.100Z,44.10
2018-09-05T10:39:37.745Z,44.00
2018-09-05T10:42:05.185Z,44.00
2018-09-05T10:44:32.662Z,43.70
2018-09-05T10:47:00.103Z,43.40
2018-09-05T10:49:27.514Z,43.00
2018-09-05T10:51:56.229Z,42.40
2018-09-05T10:54:24.557Z,40.90
2018-09-05T10:56:52.093Z,40.70
2018-09-05T10:59:19.507Z,40.70
2018-09-05T11:01:47.074Z,40.80
2018-09-05T11:04:15.916Z,38.30
2018-09-05T11:06:43.342Z,38.30
2018-09-05T11:09:12.094Z,37.20
2018-09-05T11:11:40.011Z,35.80
2018-09-05T11:14:07.923Z,36.70
2018-09-05T11:16:35.462Z,36.90
2018-09-05T11:19:03.154Z,36.90
2018-09-05T11:21:31.673Z,37.70
2018-09-05T11:23:59.663Z,37.30
2018-09-05T11:26:27.069Z,37.80
2018-09-05T11:28:55.745Z,37.70
2018-09-05T11:31:23.115Z,37.70
2018-09-05T11:33:51.126Z,37.50
2018-09-05T11:36:19.242Z,37.50
2018-09-05T11:38:46.784Z,37.40
2018-09-05T11:41:14.664Z,37.50
2018-09-05T11:43:42.507Z,38.20
2018-09-05T11:46:10.015Z,37.30
2018-09-05T11:48:37.535Z,37.20
2018-09-05T11:51:05.288Z,37.00
2018-09-05T11:53:32.746Z,37.40
2018-09-05T11:56:00.328Z,37.30
2018-09-05T11:58:27.817Z,36.50
2018-09-05T12:00:55.858Z,36.80
2018-09-05T12:03:24.655Z,37.70
2018-09-05T12:05:52.546Z,37.90
2018-09-05T12:08:20.393Z,37.50
2018-09-05T12:10:48.379Z,37.60
2018-09-05T12:13:16.251Z,37.50
2018-09-05T12:15:43.668Z,37.10
2018-09-05T12:18:11.087Z,36.60
2018-09-05T12:20:38.645Z,35.20
2018-09-05T12:23:06.879Z,34.50
2018-09-05T12:25:34.794Z,35.40
2018-09-05T12:28:02.374Z,36.00
2018-09-05T12:30:30.178Z,36.10
2018-09-05T12:32:57.692Z,35.80
2018-09-05T12:35:25.314Z,35.50
2018-09-05T12:37:53.467Z,35.70
2018-09-05T12:40:20.946Z,35.60
2018-09-05T12:42:48.715Z,34.70
2018-09-05T12:52:15.334Z,34.80
2018-09-05T12:54:42.802Z,35.20
2018-09-05T12:57:10.607Z,34.60
2018-09-05T12:59:38.347Z,35.00
2018-09-05T13:02:06.522Z,34.90
2018-09-05T13:04:34.212Z,35.00
2018-09-05T13:07:01.692Z,35.10
2018-09-05T13:09:29.166Z,35.10
2018-09-05T13:11:56.894Z,34.90
2018-09-05T13:14:24.378Z,34.90
2018-09-05T13:16:52.050Z,35.00
2018-09-05T13:19:19.921Z,35.00
2018-09-05T13:21:47.498Z,35.10
2018-09-05T13:24:15.491Z,34.70
2018-09-05T13:26:43.146Z,34.40
2018-09-05T13:29:10.847Z,34.60
2018-09-05T13:31:38.296Z,35.00
2018-09-05T13:34:06.099Z,34.50
2018-09-05T13:36:33.506Z,34.80
2018-09-05T13:39:01.024Z,34.90
2018-09-05T13:41:28.473Z,34.90
2018-09-05T13:43:56.838Z,35.00
2018-09-05T13:46:25.380Z,35.50
2018-09-05T13:48:52.965Z,35.20
2018-09-05T13:51:20.591Z,35.00
2018-09-05T13:53:48.334Z,34.70
2018-09-05T13:56:16.992Z,34.70
2018-09-05T13:58:44.437Z,35.20
2018-09-05T14:01:12.057Z,35.00
2018-09-05T14:03:39.902Z,34.70
2018-09-05T14:06:07.340Z,34.80
2018-09-05T14:08:35.143Z,35.00
2018-09-05T14:11:02.975Z,34.90
2018-09-05T14:13:30.769Z,34.70
2018-09-05T14:15:58.158Z,34.50
2018-09-05T14:18:25.574Z,34.20
2018-09-05T14:20:52.986Z,34.30
2018-09-05T14:23:20.583Z,34.20
2018-09-05T14:25:47.958Z,34.10
2018-09-05T14:28:15.681Z,34.60
2018-09-05T14:30:43.194Z,34.20
2018-09-05T14:33:10.796Z,34.40
2018-09-05T14:35:38.728Z,34.40
2018-09-05T14:38:06.163Z,34.40
2018-09-05T14:40:33.572Z,34.20
2018-09-05T14:43:01.156Z,34.20
2018-09-05T14:45:28.680Z,34.40
2018-09-05T14:47:56.163Z,34.30
2018-09-05T14:50:24.298Z,34.30
2018-09-05T14:52:51.736Z,34.40
2018-09-05T14:55:19.394Z,34.20
2018-09-05T14:57:46.892Z,33.40
2018-09-05T15:00:15.493Z,33.20
2018-09-05T15:02:42.907Z,33.20
2018-09-05T15:05:10.454Z,33.20
2018-09-05T15:07:37.883Z,32.70
2018-09-05T15:10:06.474Z,33.00
2018-09-05T15:12:34.345Z,33.00
2018-09-05T15:15:02.267Z,32.90
2018-09-05T15:17:29.760Z,33.00
2018-09-05T15:19:57.326Z,33.30
2018-09-05T15:22:24.977Z,33.00
2018-09-05T15:24:52.461Z,33.10
2018-09-05T15:27:20.122Z,33.20
2018-09-05T15:29:48.711Z,33.30
2018-09-05T15:32:16.310Z,33.00
2018-09-05T15:34:43.734Z,33.10
2018-09-05T15:37:11.197Z,33.10
2018-09-05T15:39:38.591Z,33.20
2018-09-05T15:42:06.121Z,33.20
2018-09-05T15:44:33.548Z,33.20
2018-09-05T15:47:00.968Z,33.30
2018-09-05T15:49:28.382Z,33.30
2018-09-05T15:51:56.176Z,33.30
2018-09-05T15:54:24.337Z,33.40
2018-09-05T15:56:52.084Z,33.30
2018-09-05T15:59:19.508Z,33.30
2018-09-05T16:01:46.922Z,33.30
2018-09-05T16:04:14.347Z,33.30
2018-09-05T16:06:41.773Z,33.30
2018-09-05T16:09:10.660Z,33.40
2018-09-05T16:11:38.230Z,33.40
2018-09-05T16:14:05.706Z,33.50
2018-09-05T16:16:33.750Z,33.50
2018-09-05T16:19:01.207Z,33.50
2018-09-05T16:21:28.839Z,33.50
2018-09-05T16:23:56.251Z,33.50
2018-09-05T16:26:23.668Z,33.50
2018-09-05T16:28:51.310Z,33.50
2018-09-05T16:31:19.537Z,33.50
2018-09-05T16:33:46.982Z,33.50
2018-09-05T16:36:14.612Z,33.50
2018-09-05T16:38:43.207Z,33.50
2018-09-05T16:41:10.673Z,33.50
2018-09-05T16:43:38.082Z,33.60
2018-09-05T16:46:06.540Z,33.60
2018-09-05T16:48:34.000Z,33.60
2018-09-05T16:51:01.630Z,33.60
2018-09-05T16:53:29.070Z,33.70
2018-09-05T16:55:56.453Z,33.60
2018-09-05T16:58:23.870Z,33.60
2018-09-05T17:00:51.312Z,33.70
2018-09-05T17:03:18.697Z,33.70
2018-09-05T17:05:46.906Z,33.70
2018-09-05T17:08:14.320Z,33.80
2018-09-05T17:10:42.278Z,33.80
2018-09-05T17:13:09.990Z,33.80
2018-09-05T17:15:37.403Z,33.80
2018-09-05T17:18:05.127Z,33.80
2018-09-05T17:20:33.566Z,33.80
2018-09-05T17:23:00.969Z,33.90
2018-09-05T17:25:28.391Z,33.80
2018-09-05T17:27:55.960Z,33.80
2018-09-05T17:30:23.379Z,33.40
2018-09-05T17:32:51.276Z,33.80
2018-09-05T17:35:18.915Z,33.80
2018-09-05T17:37:46.609Z,33.80
2018-09-05T17:40:14.042Z,33.70
2018-09-05T17:42:41.462Z,33.80
2018-09-05T17:45:08.948Z,33.80
2018-09-05T17:47:36.348Z,33.80
2018-09-05T17:50:03.794Z,33.80
2018-09-05T17:52:31.678Z,33.80
2018-09-05T17:54:59.105Z,33.90
2018-09-05T17:57:26.570Z,33.90
2018-09-05T17:59:54.042Z,33.90
